Frankfort, Michigan
Current Conditions -  °F | °C
As of 2:51 PM on Thursday 30 Oct 2014 (Local Time) from KFKS Reporting Station
Overcast Overcast  
Wind Chill: 42°   Ceiling: 3500
Heat Index: 46°   Visibility: 10mi
Dew Point: 38°   Wind: 8mph
Humidity: 74%   Direction: 260°W
Pressure: 30.04"   Gusts: NA
Location:  44.63°N, 86.23°W
Report Text: KFKS 301851Z AUTO 26007KT 10SM SCT026 OVC035 08/03 A3004 RMK AO2 T00770033
Loading
Personal Weather Stations






























Interactive Weather Map
Tropical Storm Tracking
New forecast layout! Learn more

10-Day Weather Forecast

Advertisements
Track Severe Weather on mobile